sensor_id;sensor_type;location;lat;lon;timestamp;P1;durP1;ratioP1;P2;durP2;ratioP2
45466;SDS011;31212;49.734;8.490;2023-07-30T00:00:06;2.75;;;0.77;;
45466;SDS011;31212;49.734;8.490;2023-07-30T00:02:38;1.17;;;0.90;;
45466;SDS011;31212;49.734;8.490;2023-07-30T00:05:04;0.60;;;0.60;;
45466;SDS011;31212;49.734;8.490;2023-07-30T00:07:31;1.58;;;1.05;;
45466;SDS011;31212;49.734;8.490;2023-07-30T00:09:58;1.17;;;0.93;;
45466;SDS011;31212;49.734;8.490;2023-07-30T00:12:24;1.08;;;0.73;;
45466;SDS011;31212;49.734;8.490;2023-07-30T00:14:51;1.00;;;0.77;;
45466;SDS011;31212;49.734;8.490;2023-07-30T00:17:17;2.58;;;0.93;;
45466;SDS011;31212;49.734;8.490;2023-07-30T00:19:45;0.73;;;0.52;;
45466;SDS011;31212;49.734;8.490;2023-07-30T00:22:11;1.10;;;0.70;;
45466;SDS011;31212;49.734;8.490;2023-07-30T00:24:38;5.03;;;0.80;;
45466;SDS011;31212;49.734;8.490;2023-07-30T00:27:04;1.75;;;0.90;;
45466;SDS011;31212;49.734;8.490;2023-07-30T00:29:32;1.45;;;0.80;;
45466;SDS011;31212;49.734;8.490;2023-07-30T00:31:58;2.08;;;0.85;;
45466;SDS011;31212;49.734;8.490;2023-07-30T00:34:25;2.70;;;0.98;;
45466;SDS011;31212;49.734;8.490;2023-07-30T00:36:53;4.75;;;0.75;;
45466;SDS011;31212;49.734;8.490;2023-07-30T00:39:20;1.77;;;0.73;;
45466;SDS011;31212;49.734;8.490;2023-07-30T00:41:46;4.35;;;1.15;;
45466;SDS011;31212;49.734;8.490;2023-07-30T00:44:13;2.45;;;0.90;;
45466;SDS011;31212;49.734;8.490;2023-07-30T00:46:40;1.17;;;1.00;;
45466;SDS011;31212;49.734;8.490;2023-07-30T00:49:07;1.27;;;1.00;;
45466;SDS011;31212;49.734;8.490;2023-07-30T00:51:33;1.10;;;0.70;;
45466;SDS011;31212;49.734;8.490;2023-07-30T00:54:02;1.20;;;0.90;;
45466;SDS011;31212;49.734;8.490;2023-07-30T00:56:28;0.85;;;0.60;;
45466;SDS011;31212;49.734;8.490;2023-07-30T00:58:56;1.40;;;0.88;;
45466;SDS011;31212;49.734;8.490;2023-07-30T01:01:22;2.30;;;0.80;;
45466;SDS011;31212;49.734;8.490;2023-07-30T01:03:49;1.42;;;0.70;;
45466;SDS011;31212;49.734;8.490;2023-07-30T01:06:16;1.05;;;0.60;;
45466;SDS011;31212;49.734;8.490;2023-07-30T01:08:42;2.63;;;0.85;;
45466;SDS011;31212;49.734;8.490;2023-07-30T01:11:10;1.80;;;0.80;;
45466;SDS011;31212;49.734;8.490;2023-07-30T01:13:37;1.10;;;0.90;;
45466;SDS011;31212;49.734;8.490;2023-07-30T01:16:05;1.10;;;0.65;;
45466;SDS011;31212;49.734;8.490;2023-07-30T01:18:32;1.05;;;0.60;;
45466;SDS011;31212;49.734;8.490;2023-07-30T01:21:00;0.50;;;0.50;;
45466;SDS011;31212;49.734;8.490;2023-07-30T01:23:26;1.00;;;0.75;;
45466;SDS011;31212;49.734;8.490;2023-07-30T01:25:54;2.15;;;0.85;;
45466;SDS011;31212;49.734;8.490;2023-07-30T01:28:27;0.73;;;0.45;;
45466;SDS011;31212;49.734;8.490;2023-07-30T01:30:55;3.20;;;0.80;;
45466;SDS011;31212;49.734;8.490;2023-07-30T01:33:26;1.05;;;0.82;;
45466;SDS011;31212;49.734;8.490;2023-07-30T01:35:52;0.55;;;0.45;;
45466;SDS011;31212;49.734;8.490;2023-07-30T01:38:23;0.68;;;0.50;;
45466;SDS011;31212;49.734;8.490;2023-07-30T01:40:51;3.25;;;1.00;;
45466;SDS011;31212;49.734;8.490;2023-07-30T01:43:18;0.82;;;0.55;;
45466;SDS011;31212;49.734;8.490;2023-07-30T01:45:44;1.02;;;0.52;;
45466;SDS011;31212;49.734;8.490;2023-07-30T01:48:12;0.90;;;0.60;;
45466;SDS011;31212;49.734;8.490;2023-07-30T01:50:38;2.78;;;0.63;;
45466;SDS011;31212;49.734;8.490;2023-07-30T01:53:05;0.52;;;0.50;;
45466;SDS011;31212;49.734;8.490;2023-07-30T01:55:33;0.50;;;0.50;;
45466;SDS011;31212;49.734;8.490;2023-07-30T01:58:00;0.45;;;0.45;;
45466;SDS011;31212;49.734;8.490;2023-07-30T02:00:26;0.68;;;0.60;;
45466;SDS011;31212;49.734;8.490;2023-07-30T02:03:02;0.90;;;0.65;;
45466;SDS011;31212;49.734;8.490;2023-07-30T02:05:29;0.88;;;0.70;;
45466;SDS011;31212;49.734;8.490;2023-07-30T02:07:55;1.67;;;1.00;;
45466;SDS011;31212;49.734;8.490;2023-07-30T02:10:23;0.73;;;0.60;;
45466;SDS011;31212;49.734;8.490;2023-07-30T02:12:51;1.17;;;0.85;;
45466;SDS011;31212;49.734;8.490;2023-07-30T02:15:17;2.25;;;0.98;;
45466;SDS011;31212;49.734;8.490;2023-07-30T02:17:44;0.57;;;0.57;;
45466;SDS011;31212;49.734;8.490;2023-07-30T02:20:10;1.38;;;1.10;;
45466;SDS011;31212;49.734;8.490;2023-07-30T02:22:37;0.93;;;0.70;;
45466;SDS011;31212;49.734;8.490;2023-07-30T02:25:04;0.70;;;0.70;;
45466;SDS011;31212;49.734;8.490;2023-07-30T02:27:31;2.25;;;0.90;;
45466;SDS011;31212;49.734;8.490;2023-07-30T02:29:59;1.42;;;1.17;;
45466;SDS011;31212;49.734;8.490;2023-07-30T02:32:25;1.60;;;1.15;;
45466;SDS011;31212;49.734;8.490;2023-07-30T02:34:52;0.75;;;0.55;;
45466;SDS011;31212;49.734;8.490;2023-07-30T02:37:18;1.42;;;0.70;;
45466;SDS011;31212;49.734;8.490;2023-07-30T02:39:45;2.28;;;1.08;;
45466;SDS011;31212;49.734;8.490;2023-07-30T02:42:11;2.05;;;1.00;;
45466;SDS011;31212;49.734;8.490;2023-07-30T02:44:38;1.13;;;0.70;;
45466;SDS011;31212;49.734;8.490;2023-07-30T02:47:06;1.55;;;1.00;;
45466;SDS011;31212;49.734;8.490;2023-07-30T02:49:32;3.97;;;0.80;;
45466;SDS011;31212;49.734;8.490;2023-07-30T02:51:59;1.77;;;0.90;;
45466;SDS011;31212;49.734;8.490;2023-07-30T02:54:25;1.88;;;0.82;;
45466;SDS011;31212;49.734;8.490;2023-07-30T02:56:51;1.98;;;1.10;;
45466;SDS011;31212;49.734;8.490;2023-07-30T02:59:18;1.98;;;1.50;;
45466;SDS011;31212;49.734;8.490;2023-07-30T03:01:44;2.17;;;1.08;;
45466;SDS011;31212;49.734;8.490;2023-07-30T03:04:12;5.45;;;1.40;;
45466;SDS011;31212;49.734;8.490;2023-07-30T03:06:39;2.45;;;1.52;;
45466;SDS011;31212;49.734;8.490;2023-07-30T03:09:05;1.20;;;0.98;;
45466;SDS011;31212;49.734;8.490;2023-07-30T03:11:32;2.50;;;1.35;;
45466;SDS011;31212;49.734;8.490;2023-07-30T03:13:59;2.40;;;1.25;;
45466;SDS011;31212;49.734;8.490;2023-07-30T03:16:25;1.90;;;1.40;;
45466;SDS011;31212;49.734;8.490;2023-07-30T03:18:52;1.23;;;1.08;;
45466;SDS011;31212;49.734;8.490;2023-07-30T03:21:19;3.58;;;1.38;;
45466;SDS011;31212;49.734;8.490;2023-07-30T03:23:46;2.05;;;1.27;;
45466;SDS011;31212;49.734;8.490;2023-07-30T03:26:13;1.58;;;0.93;;
45466;SDS011;31212;49.734;8.490;2023-07-30T03:28:40;2.38;;;1.23;;
45466;SDS011;31212;49.734;8.490;2023-07-30T03:31:06;2.97;;;1.48;;
45466;SDS011;31212;49.734;8.490;2023-07-30T03:33:33;3.15;;;1.98;;
45466;SDS011;31212;49.734;8.490;2023-07-30T03:36:00;2.05;;;1.40;;
45466;SDS011;31212;49.734;8.490;2023-07-30T03:38:28;2.22;;;1.35;;
45466;SDS011;31212;49.734;8.490;2023-07-30T03:40:55;2.58;;;1.55;;
45466;SDS011;31212;49.734;8.490;2023-07-30T03:43:22;1.52;;;1.05;;
45466;SDS011;31212;49.734;8.490;2023-07-30T03:45:48;3.55;;;1.23;;
45466;SDS011;31212;49.734;8.490;2023-07-30T03:48:15;5.10;;;1.33;;
45466;SDS011;31212;49.734;8.490;2023-07-30T03:50:41;2.30;;;1.40;;
45466;SDS011;31212;49.734;8.490;2023-07-30T03:53:08;2.38;;;1.42;;
45466;SDS011;31212;49.734;8.490;2023-07-30T03:55:36;3.95;;;1.77;;
45466;SDS011;31212;49.734;8.490;2023-07-30T03:58:02;2.13;;;1.50;;
45466;SDS011;31212;49.734;8.490;2023-07-30T04:00:28;3.17;;;1.50;;
45466;SDS011;31212;49.734;8.490;2023-07-30T04:02:55;1.63;;;1.17;;
45466;SDS011;31212;49.734;8.490;2023-07-30T04:05:22;1.67;;;1.10;;
45466;SDS011;31212;49.734;8.490;2023-07-30T04:07:48;4.70;;;1.35;;
45466;SDS011;31212;49.734;8.490;2023-07-30T04:10:15;4.40;;;1.30;;
45466;SDS011;31212;49.734;8.490;2023-07-30T04:12:42;1.92;;;1.15;;
45466;SDS011;31212;49.734;8.490;2023-07-30T04:15:10;1.92;;;1.30;;
45466;SDS011;31212;49.734;8.490;2023-07-30T04:17:37;3.13;;;1.52;;
45466;SDS011;31212;49.734;8.490;2023-07-30T04:20:04;2.55;;;1.35;;
45466;SDS011;31212;49.734;8.490;2023-07-30T04:22:31;2.58;;;1.20;;
45466;SDS011;31212;49.734;8.490;2023-07-30T04:24:58;4.82;;;1.40;;
45466;SDS011;31212;49.734;8.490;2023-07-30T04:27:24;7.82;;;2.10;;
45466;SDS011;31212;49.734;8.490;2023-07-30T04:29:52;3.50;;;2.35;;
45466;SDS011;31212;49.734;8.490;2023-07-30T04:32:19;3.85;;;2.33;;
45466;SDS011;31212;49.734;8.490;2023-07-30T04:34:45;4.80;;;2.63;;
45466;SDS011;31212;49.734;8.490;2023-07-30T04:37:12;3.10;;;2.08;;
45466;SDS011;31212;49.734;8.490;2023-07-30T04:39:39;4.00;;;2.00;;
45466;SDS011;31212;49.734;8.490;2023-07-30T04:42:06;4.85;;;2.30;;
45466;SDS011;31212;49.734;8.490;2023-07-30T04:44:33;6.65;;;3.47;;
45466;SDS011;31212;49.734;8.490;2023-07-30T04:47:08;3.65;;;2.33;;
45466;SDS011;31212;49.734;8.490;2023-07-30T04:49:34;2.85;;;1.58;;
45466;SDS011;31212;49.734;8.490;2023-07-30T04:52:02;3.47;;;1.63;;
45466;SDS011;31212;49.734;8.490;2023-07-30T04:54:29;2.30;;;1.67;;
45466;SDS011;31212;49.734;8.490;2023-07-30T04:56:55;1.73;;;1.23;;
45466;SDS011;31212;49.734;8.490;2023-07-30T04:59:22;6.45;;;2.33;;
45466;SDS011;31212;49.734;8.490;2023-07-30T05:01:48;3.22;;;1.70;;
45466;SDS011;31212;49.734;8.490;2023-07-30T05:04:16;3.55;;;1.83;;
45466;SDS011;31212;49.734;8.490;2023-07-30T05:06:43;2.30;;;1.52;;
45466;SDS011;31212;49.734;8.490;2023-07-30T05:09:09;2.55;;;1.70;;
45466;SDS011;31212;49.734;8.490;2023-07-30T05:11:36;1.77;;;1.45;;
45466;SDS011;31212;49.734;8.490;2023-07-30T05:14:03;4.40;;;1.13;;
45466;SDS011;31212;49.734;8.490;2023-07-30T05:16:29;1.70;;;1.30;;
45466;SDS011;31212;49.734;8.490;2023-07-30T05:18:56;1.67;;;1.20;;
45466;SDS011;31212;49.734;8.490;2023-07-30T05:21:24;4.57;;;1.55;;
45466;SDS011;31212;49.734;8.490;2023-07-30T05:23:50;1.90;;;1.48;;
45466;SDS011;31212;49.734;8.490;2023-07-30T05:26:17;2.28;;;1.42;;
45466;SDS011;31212;49.734;8.490;2023-07-30T05:28:43;2.13;;;1.20;;
45466;SDS011;31212;49.734;8.490;2023-07-30T05:31:09;4.00;;;1.25;;
45466;SDS011;31212;49.734;8.490;2023-07-30T05:33:36;1.92;;;1.23;;
45466;SDS011;31212;49.734;8.490;2023-07-30T05:36:02;3.65;;;1.60;;
45466;SDS011;31212;49.734;8.490;2023-07-30T05:38:30;3.47;;;1.35;;
45466;SDS011;31212;49.734;8.490;2023-07-30T05:40:57;1.88;;;1.30;;
45466;SDS011;31212;49.734;8.490;2023-07-30T05:43:23;3.20;;;1.83;;
45466;SDS011;31212;49.734;8.490;2023-07-30T05:45:50;2.10;;;1.25;;
45466;SDS011;31212;49.734;8.490;2023-07-30T05:48:16;3.60;;;1.20;;
45466;SDS011;31212;49.734;8.490;2023-07-30T05:50:43;2.53;;;1.52;;
45466;SDS011;31212;49.734;8.490;2023-07-30T05:53:09;1.80;;;1.20;;
45466;SDS011;31212;49.734;8.490;2023-07-30T05:55:37;2.58;;;1.50;;
45466;SDS011;31212;49.734;8.490;2023-07-30T05:58:03;1.38;;;1.08;;
45466;SDS011;31212;49.734;8.490;2023-07-30T06:00:30;1.52;;;1.33;;
45466;SDS011;31212;49.734;8.490;2023-07-30T06:02:56;1.33;;;1.23;;
45466;SDS011;31212;49.734;8.490;2023-07-30T06:05:23;3.15;;;1.60;;
45466;SDS011;31212;49.734;8.490;2023-07-30T06:07:49;2.35;;;1.20;;
45466;SDS011;31212;49.734;8.490;2023-07-30T06:10:16;3.15;;;1.45;;
45466;SDS011;31212;49.734;8.490;2023-07-30T06:12:44;2.25;;;1.40;;
45466;SDS011;31212;49.734;8.490;2023-07-30T06:15:10;1.55;;;1.33;;
45466;SDS011;31212;49.734;8.490;2023-07-30T06:17:37;1.67;;;1.27;;
45466;SDS011;31212;49.734;8.490;2023-07-30T06:20:04;3.17;;;1.42;;
45466;SDS011;31212;49.734;8.490;2023-07-30T06:22:31;2.45;;;1.67;;
45466;SDS011;31212;49.734;8.490;2023-07-30T06:24:58;2.70;;;1.08;;
45466;SDS011;31212;49.734;8.490;2023-07-30T06:27:24;3.00;;;1.63;;
45466;SDS011;31212;49.734;8.490;2023-07-30T06:29:52;2.58;;;1.42;;
45466;SDS011;31212;49.734;8.490;2023-07-30T06:32:18;1.58;;;1.17;;
45466;SDS011;31212;49.734;8.490;2023-07-30T06:34:45;2.08;;;1.20;;
45466;SDS011;31212;49.734;8.490;2023-07-30T06:37:11;1.92;;;1.58;;
45466;SDS011;31212;49.734;8.490;2023-07-30T06:39:38;3.38;;;1.90;;
45466;SDS011;31212;49.734;8.490;2023-07-30T06:42:05;6.53;;;1.52;;
45466;SDS011;31212;49.734;8.490;2023-07-30T06:44:31;4.03;;;2.10;;
45466;SDS011;31212;49.734;8.490;2023-07-30T06:46:59;6.20;;;2.17;;
45466;SDS011;31212;49.734;8.490;2023-07-30T06:49:26;3.75;;;2.10;;
45466;SDS011;31212;49.734;8.490;2023-07-30T06:51:53;6.82;;;1.67;;
45466;SDS011;31212;49.734;8.490;2023-07-30T06:54:20;3.05;;;1.48;;
45466;SDS011;31212;49.734;8.490;2023-07-30T06:56:46;3.00;;;1.42;;
45466;SDS011;31212;49.734;8.490;2023-07-30T06:59:13;3.13;;;1.65;;
45466;SDS011;31212;49.734;8.490;2023-07-30T07:01:39;2.10;;;1.50;;
45466;SDS011;31212;49.734;8.490;2023-07-30T07:04:07;1.17;;;1.08;;
45466;SDS011;31212;49.734;8.490;2023-07-30T07:06:34;1.55;;;1.10;;
45466;SDS011;31212;49.734;8.490;2023-07-30T07:09:00;2.40;;;1.52;;
45466;SDS011;31212;49.734;8.490;2023-07-30T07:11:27;5.10;;;2.28;;
45466;SDS011;31212;49.734;8.490;2023-07-30T07:13:53;3.60;;;2.10;;
45466;SDS011;31212;49.734;8.490;2023-07-30T07:16:19;1.92;;;1.73;;
45466;SDS011;31212;49.734;8.490;2023-07-30T07:18:46;2.67;;;1.30;;
45466;SDS011;31212;49.734;8.490;2023-07-30T07:21:15;1.85;;;1.20;;
45466;SDS011;31212;49.734;8.490;2023-07-30T07:23:41;5.15;;;1.40;;
45466;SDS011;31212;49.734;8.490;2023-07-30T07:26:08;1.63;;;1.33;;
45466;SDS011;31212;49.734;8.490;2023-07-30T07:28:34;2.20;;;1.50;;
45466;SDS011;31212;49.734;8.490;2023-07-30T07:31:01;2.95;;;1.60;;
45466;SDS011;31212;49.734;8.490;2023-07-30T07:33:27;1.75;;;1.08;;
45466;SDS011;31212;49.734;8.490;2023-07-30T07:36:02;2.03;;;1.80;;
45466;SDS011;31212;49.734;8.490;2023-07-30T07:38:30;2.13;;;1.40;;
45466;SDS011;31212;49.734;8.490;2023-07-30T07:40:57;5.68;;;1.90;;
45466;SDS011;31212;49.734;8.490;2023-07-30T07:43:24;3.15;;;1.90;;
45466;SDS011;31212;49.734;8.490;2023-07-30T07:45:50;2.63;;;1.90;;
45466;SDS011;31212;49.734;8.490;2023-07-30T07:48:17;3.92;;;2.00;;
45466;SDS011;31212;49.734;8.490;2023-07-30T07:50:43;3.20;;;2.20;;
45466;SDS011;31212;49.734;8.490;2023-07-30T07:53:09;2.30;;;1.63;;
45466;SDS011;31212;49.734;8.490;2023-07-30T07:55:37;2.53;;;1.58;;
45466;SDS011;31212;49.734;8.490;2023-07-30T07:58:04;3.03;;;1.95;;
45466;SDS011;31212;49.734;8.490;2023-07-30T08:00:30;2.47;;;1.75;;
45466;SDS011;31212;49.734;8.490;2023-07-30T08:02:57;3.47;;;2.10;;
45466;SDS011;31212;49.734;8.490;2023-07-30T08:05:23;2.22;;;1.63;;
45466;SDS011;31212;49.734;8.490;2023-07-30T08:07:50;1.55;;;1.40;;
45466;SDS011;31212;49.734;8.490;2023-07-30T08:10:16;3.58;;;2.00;;
45466;SDS011;31212;49.734;8.490;2023-07-30T08:12:44;4.88;;;1.95;;
45466;SDS011;31212;49.734;8.490;2023-07-30T08:15:12;4.97;;;1.35;;
45466;SDS011;31212;49.734;8.490;2023-07-30T08:17:39;2.58;;;1.50;;
45466;SDS011;31212;49.734;8.490;2023-07-30T08:20:05;2.90;;;1.65;;
45466;SDS011;31212;49.734;8.490;2023-07-30T08:22:33;2.20;;;1.38;;
45466;SDS011;31212;49.734;8.490;2023-07-30T08:24:59;1.40;;;1.20;;
45466;SDS011;31212;49.734;8.490;2023-07-30T08:27:26;1.77;;;1.15;;
45466;SDS011;31212;49.734;8.490;2023-07-30T08:29:54;2.38;;;1.20;;
45466;SDS011;31212;49.734;8.490;2023-07-30T08:32:20;5.50;;;1.35;;
45466;SDS011;31212;49.734;8.490;2023-07-30T08:34:47;1.55;;;1.15;;
45466;SDS011;31212;49.734;8.490;2023-07-30T08:37:13;0.90;;;0.82;;
45466;SDS011;31212;49.734;8.490;2023-07-30T08:39:40;3.40;;;1.20;;
45466;SDS011;31212;49.734;8.490;2023-07-30T08:42:06;1.95;;;1.23;;
45466;SDS011;31212;49.734;8.490;2023-07-30T08:44:33;1.17;;;0.90;;
45466;SDS011;31212;49.734;8.490;2023-07-30T08:47:02;1.58;;;1.15;;
45466;SDS011;31212;49.734;8.490;2023-07-30T08:49:29;3.00;;;1.20;;
45466;SDS011;31212;49.734;8.490;2023-07-30T08:51:58;1.65;;;1.00;;
45466;SDS011;31212;49.734;8.490;2023-07-30T08:54:25;1.23;;;1.10;;
45466;SDS011;31212;49.734;8.490;2023-07-30T08:56:55;1.50;;;1.08;;
45466;SDS011;31212;49.734;8.490;2023-07-30T08:59:22;2.28;;;1.30;;
45466;SDS011;31212;49.734;8.490;2023-07-30T09:01:51;2.55;;;1.38;;
45466;SDS011;31212;49.734;8.490;2023-07-30T09:04:19;1.50;;;1.40;;
45466;SDS011;31212;49.734;8.490;2023-07-30T09:06:47;2.38;;;1.48;;
45466;SDS011;31212;49.734;8.490;2023-07-30T09:09:15;1.55;;;1.30;;
45466;SDS011;31212;49.734;8.490;2023-07-30T09:11:41;3.17;;;1.40;;
45466;SDS011;31212;49.734;8.490;2023-07-30T09:14:08;1.20;;;1.05;;
45466;SDS011;31212;49.734;8.490;2023-07-30T09:16:35;1.67;;;1.20;;
45466;SDS011;31212;49.734;8.490;2023-07-30T09:19:02;1.30;;;1.20;;
45466;SDS011;31212;49.734;8.490;2023-07-30T09:21:30;3.35;;;1.35;;
45466;SDS011;31212;49.734;8.490;2023-07-30T09:23:57;1.83;;;1.30;;
45466;SDS011;31212;49.734;8.490;2023-07-30T09:26:28;2.50;;;1.40;;
45466;SDS011;31212;49.734;8.490;2023-07-30T09:28:55;4.43;;;1.10;;
45466;SDS011;31212;49.734;8.490;2023-07-30T09:31:21;2.95;;;0.73;;
45466;SDS011;31212;49.734;8.490;2023-07-30T09:33:48;0.22;;;0.22;;
45466;SDS011;31212;49.734;8.490;2023-07-30T09:36:14;1.75;;;0.43;;
45466;SDS011;31212;49.734;8.490;2023-07-30T09:38:46;0.52;;;0.45;;
45466;SDS011;31212;49.734;8.490;2023-07-30T09:41:14;0.75;;;0.45;;
45466;SDS011;31212;49.734;8.490;2023-07-30T09:43:41;1.20;;;0.52;;
45466;SDS011;31212;49.734;8.490;2023-07-30T09:46:07;0.28;;;0.20;;
45466;SDS011;31212;49.734;8.490;2023-07-30T09:48:34;1.33;;;0.40;;
45466;SDS011;31212;49.734;8.490;2023-07-30T09:51:01;0.32;;;0.30;;
45466;SDS011;31212;49.734;8.490;2023-07-30T09:53:31;0.75;;;0.40;;
45466;SDS011;31212;49.734;8.490;2023-07-30T09:56:01;2.55;;;0.50;;
45466;SDS011;31212;49.734;8.490;2023-07-30T09:58:27;1.25;;;0.30;;
45466;SDS011;31212;49.734;8.490;2023-07-30T10:00:55;1.35;;;0.30;;
45466;SDS011;31212;49.734;8.490;2023-07-30T10:03:23;1.20;;;0.52;;
45466;SDS011;31212;49.734;8.490;2023-07-30T10:05:50;0.75;;;0.40;;
45466;SDS011;31212;49.734;8.490;2023-07-30T10:08:21;3.65;;;0.77;;
45466;SDS011;31212;49.734;8.490;2023-07-30T10:10:50;0.88;;;0.28;;
45466;SDS011;31212;49.734;8.490;2023-07-30T10:13:21;3.50;;;0.40;;
45466;SDS011;31212;49.734;8.490;2023-07-30T10:15:48;1.70;;;0.50;;
45466;SDS011;31212;49.734;8.490;2023-07-30T10:18:15;0.30;;;0.30;;
45466;SDS011;31212;49.734;8.490;2023-07-30T10:20:43;1.45;;;0.40;;
45466;SDS011;31212;49.734;8.490;2023-07-30T10:23:17;1.00;;;0.50;;
45466;SDS011;31212;49.734;8.490;2023-07-30T10:25:45;0.30;;;0.30;;
45466;SDS011;31212;49.734;8.490;2023-07-30T10:28:33;0.68;;;0.40;;
45466;SDS011;31212;49.734;8.490;2023-07-30T10:31:01;1.30;;;0.25;;
45466;SDS011;31212;49.734;8.490;2023-07-30T10:33:46;0.10;;;0.10;;
45466;SDS011;31212;49.734;8.490;2023-07-30T10:36:13;2.65;;;0.20;;
45466;SDS011;31212;49.734;8.490;2023-07-30T10:38:40;3.92;;;0.50;;
45466;SDS011;31212;49.734;8.490;2023-07-30T10:41:08;5.07;;;0.50;;
45466;SDS011;31212;49.734;8.490;2023-07-30T10:43:37;0.20;;;0.20;;
45466;SDS011;31212;49.734;8.490;2023-07-30T10:46:06;0.75;;;0.40;;
45466;SDS011;31212;49.734;8.490;2023-07-30T10:48:33;0.98;;;0.65;;
45466;SDS011;31212;49.734;8.490;2023-07-30T10:51:01;0.35;;;0.32;;
45466;SDS011;31212;49.734;8.490;2023-07-30T10:53:29;1.45;;;0.60;;
45466;SDS011;31212;49.734;8.490;2023-07-30T10:55:57;1.95;;;0.57;;
45466;SDS011;31212;49.734;8.490;2023-07-30T10:58:26;3.40;;;0.52;;
45466;SDS011;31212;49.734;8.490;2023-07-30T11:00:54;1.83;;;0.63;;
45466;SDS011;31212;49.734;8.490;2023-07-30T11:03:23;1.40;;;0.45;;
45466;SDS011;31212;49.734;8.490;2023-07-30T11:05:50;0.63;;;0.50;;
45466;SDS011;31212;49.734;8.490;2023-07-30T11:08:17;4.65;;;0.98;;
45466;SDS011;31212;49.734;8.490;2023-07-30T11:10:43;3.80;;;0.57;;
45466;SDS011;31212;49.734;8.490;2023-07-30T11:13:12;0.77;;;0.52;;
45466;SDS011;31212;49.734;8.490;2023-07-30T11:15:42;0.93;;;0.90;;
45466;SDS011;31212;49.734;8.490;2023-07-30T11:18:11;1.20;;;0.80;;
45466;SDS011;31212;49.734;8.490;2023-07-30T11:20:38;0.70;;;0.57;;
45466;SDS011;31212;49.734;8.490;2023-07-30T11:23:18;2.15;;;0.50;;
45466;SDS011;31212;49.734;8.490;2023-07-30T11:25:45;4.38;;;0.70;;
45466;SDS011;31212;49.734;8.490;2023-07-30T11:28:13;1.70;;;0.70;;
45466;SDS011;31212;49.734;8.490;2023-07-30T11:30:40;1.98;;;1.05;;
45466;SDS011;31212;49.734;8.490;2023-07-30T11:33:06;1.77;;;0.73;;
45466;SDS011;31212;49.734;8.490;2023-07-30T11:35:34;3.55;;;0.75;;
45466;SDS011;31212;49.734;8.490;2023-07-30T11:38:01;1.60;;;0.95;;
45466;SDS011;31212;49.734;8.490;2023-07-30T11:40:28;1.65;;;0.70;;
45466;SDS011;31212;49.734;8.490;2023-07-30T11:42:54;2.03;;;1.00;;
45466;SDS011;31212;49.734;8.490;2023-07-30T11:45:21;0.50;;;0.50;;
45466;SDS011;31212;49.734;8.490;2023-07-30T11:47:49;4.05;;;0.98;;
45466;SDS011;31212;49.734;8.490;2023-07-30T11:50:17;0.85;;;0.52;;
45466;SDS011;31212;49.734;8.490;2023-07-30T11:52:54;2.40;;;0.98;;
45466;SDS011;31212;49.734;8.490;2023-07-30T11:55:22;2.03;;;1.10;;
45466;SDS011;31212;49.734;8.490;2023-07-30T11:57:50;2.13;;;0.57;;
45466;SDS011;31212;49.734;8.490;2023-07-30T12:00:20;2.80;;;1.20;;
45466;SDS011;31212;49.734;8.490;2023-07-30T12:02:47;2.75;;;0.60;;
45466;SDS011;31212;49.734;8.490;2023-07-30T12:05:16;0.75;;;0.60;;
45466;SDS011;31212;49.734;8.490;2023-07-30T12:07:43;1.63;;;0.77;;
45466;SDS011;31212;49.734;8.490;2023-07-30T12:10:11;3.95;;;1.50;;
45466;SDS011;31212;49.734;8.490;2023-07-30T12:12:43;3.35;;;0.95;;
45466;SDS011;31212;49.734;8.490;2023-07-30T12:15:10;1.15;;;0.60;;
45466;SDS011;31212;49.734;8.490;2023-07-30T12:17:37;2.00;;;0.88;;
45466;SDS011;31212;49.734;8.490;2023-07-30T12:20:04;2.40;;;0.88;;
45466;SDS011;31212;49.734;8.490;2023-07-30T12:22:32;3.00;;;0.70;;
45466;SDS011;31212;49.734;8.490;2023-07-30T12:25:00;1.58;;;0.77;;
45466;SDS011;31212;49.734;8.490;2023-07-30T12:27:30;3.60;;;1.35;;
45466;SDS011;31212;49.734;8.490;2023-07-30T12:29:56;0.77;;;0.65;;
45466;SDS011;31212;49.734;8.490;2023-07-30T12:32:23;5.20;;;0.90;;
45466;SDS011;31212;49.734;8.490;2023-07-30T12:34:53;1.92;;;0.77;;
45466;SDS011;31212;49.734;8.490;2023-07-30T12:37:19;1.98;;;0.70;;
45466;SDS011;31212;49.734;8.490;2023-07-30T12:39:46;2.40;;;0.63;;
45466;SDS011;31212;49.734;8.490;2023-07-30T12:42:12;2.60;;;0.70;;
45466;SDS011;31212;49.734;8.490;2023-07-30T12:44:40;1.20;;;0.70;;
45466;SDS011;31212;49.734;8.490;2023-07-30T12:47:07;2.30;;;0.80;;
45466;SDS011;31212;49.734;8.490;2023-07-30T12:49:34;1.40;;;0.60;;
45466;SDS011;31212;49.734;8.490;2023-07-30T12:52:01;3.63;;;1.15;;
45466;SDS011;31212;49.734;8.490;2023-07-30T12:54:27;2.53;;;0.77;;
45466;SDS011;31212;49.734;8.490;2023-07-30T12:56:54;2.70;;;0.70;;
45466;SDS011;31212;49.734;8.490;2023-07-30T12:59:20;4.00;;;0.80;;
45466;SDS011;31212;49.734;8.490;2023-07-30T13:01:48;1.30;;;0.90;;
45466;SDS011;31212;49.734;8.490;2023-07-30T13:04:15;6.60;;;1.20;;
45466;SDS011;31212;49.734;8.490;2023-07-30T13:06:42;2.85;;;0.93;;
45466;SDS011;31212;49.734;8.490;2023-07-30T13:09:08;1.48;;;0.70;;
45466;SDS011;31212;49.734;8.490;2023-07-30T13:11:35;3.22;;;0.70;;
45466;SDS011;31212;49.734;8.490;2023-07-30T13:14:02;3.42;;;0.90;;
45466;SDS011;31212;49.734;8.490;2023-07-30T13:16:28;1.85;;;0.70;;
45466;SDS011;31212;49.734;8.490;2023-07-30T13:18:57;2.88;;;0.60;;
45466;SDS011;31212;49.734;8.490;2023-07-30T13:21:23;2.40;;;0.88;;
45466;SDS011;31212;49.734;8.490;2023-07-30T13:23:50;1.02;;;0.70;;
45466;SDS011;31212;49.734;8.490;2023-07-30T13:26:16;4.15;;;0.98;;
45466;SDS011;31212;49.734;8.490;2023-07-30T13:28:44;2.05;;;0.80;;
45466;SDS011;31212;49.734;8.490;2023-07-30T13:31:10;1.55;;;0.63;;
45466;SDS011;31212;49.734;8.490;2023-07-30T13:33:37;1.25;;;0.90;;
45466;SDS011;31212;49.734;8.490;2023-07-30T13:36:06;3.67;;;0.70;;
45466;SDS011;31212;49.734;8.490;2023-07-30T13:38:33;2.38;;;0.93;;
45466;SDS011;31212;49.734;8.490;2023-07-30T13:41:00;2.05;;;0.93;;
45466;SDS011;31212;49.734;8.490;2023-07-30T13:43:26;0.50;;;0.50;;
45466;SDS011;31212;49.734;8.490;2023-07-30T13:45:53;1.73;;;0.63;;
45466;SDS011;31212;49.734;8.490;2023-07-30T13:48:20;2.00;;;0.80;;
45466;SDS011;31212;49.734;8.490;2023-07-30T13:50:46;3.38;;;0.90;;
45466;SDS011;31212;49.734;8.490;2023-07-30T13:53:14;1.55;;;1.02;;
45466;SDS011;31212;49.734;8.490;2023-07-30T13:55:41;4.13;;;0.82;;
45466;SDS011;31212;49.734;8.490;2023-07-30T13:58:07;1.27;;;0.77;;
45466;SDS011;31212;49.734;8.490;2023-07-30T14:00:34;4.70;;;0.93;;
45466;SDS011;31212;49.734;8.490;2023-07-30T14:03:00;3.53;;;1.15;;
45466;SDS011;31212;49.734;8.490;2023-07-30T14:05:27;1.73;;;1.00;;
45466;SDS011;31212;49.734;8.490;2023-07-30T14:07:54;0.70;;;0.65;;
45466;SDS011;31212;49.734;8.490;2023-07-30T14:10:23;5.47;;;1.55;;
45466;SDS011;31212;49.734;8.490;2023-07-30T14:12:49;1.40;;;0.82;;
45466;SDS011;31212;49.734;8.490;2023-07-30T14:15:16;1.02;;;0.77;;
45466;SDS011;31212;49.734;8.490;2023-07-30T14:17:42;2.05;;;1.02;;
45466;SDS011;31212;49.734;8.490;2023-07-30T14:20:09;3.03;;;0.70;;
45466;SDS011;31212;49.734;8.490;2023-07-30T14:22:36;0.88;;;0.75;;
45466;SDS011;31212;49.734;8.490;2023-07-30T14:25:02;5.80;;;1.70;;
45466;SDS011;31212;49.734;8.490;2023-07-30T14:27:31;2.15;;;0.77;;
45466;SDS011;31212;49.734;8.490;2023-07-30T14:29:57;1.20;;;0.80;;
45466;SDS011;31212;49.734;8.490;2023-07-30T14:32:24;3.10;;;0.88;;
45466;SDS011;31212;49.734;8.490;2023-07-30T14:34:50;1.60;;;0.93;;
45466;SDS011;31212;49.734;8.490;2023-07-30T14:37:17;2.15;;;1.08;;
